Millersville, Missouri
Current Conditions -  °F | °C
As of 9:53 AM on Monday 22 Dec 2014 (Local Time) from KCGI Reporting Station
Light Rain Light Rain  
Wind Chill: 41°   Ceiling: 300
Heat Index: 47°   Visibility: 2.5mi
Dew Point: 46°   Wind: 14mph
Humidity: 97%   Direction: 140°SE
Pressure: 29.79"   Gusts: NA
Location:  37.43°N, 89.8°W
Report Text: KCGI 221553Z 14012KT 2 1/2SM -RA BR OVC003 08/08 A2979 RMK AO2 RAE18B49 SLP087 P0001 T00830078
Loading
Personal Weather Stations






























Interactive Weather Map New forecast layout! Learn more

10-Day Weather Forecast

Advertisements
Track Severe Weather on mobile